Search for airport 
image banner adimage banner adimage banner ad
image banner ad

0NV1 - Summerlin Medical Center

Located in Las Vegas, United States

ICAO - 0NV1, IATA -

Data provided by Airmate  

General information

Coordinates: N36°10'55" W115°18'59"
Elevation is 2745 feet MSL.
Magnetic variation is 14° East
View others Airports in Nevada

Operational data

Special qualification required
Current time UTC:
Current local time:
Weather at : KVGT - North Las Vegas ( 11 km )
METAR: KVGT 092253Z AUTO 00000KT 10SM CLR 31/M11 A2971 RMK AO2 SLP055 T03061111
TAF: KVGT 091725Z 0918/1018 35010KT P6SM FEW160 FM092200 25011KT P6SM FEW250 FM100400 31008KT P6SM FEW200
View NOTAMs / SUP AIP / TFR affecting this airport [VIEW]
Communications frequencies: [VIEW]

Runways:

Airport contact information

Address: Las Vegas United States

Satellite view of 0NV1